sensor_id;sensor_type;location;lat;lon;timestamp;P1;durP1;ratioP1;P2;durP2;ratioP2
74715;SDS011;63234;37.558;127.058;2022-09-29T00:00:47;117.38;;;60.47;;
74715;SDS011;63234;37.558;127.058;2022-09-29T00:03:15;101.72;;;56.17;;
74715;SDS011;63234;37.558;127.058;2022-09-29T00:05:46;98.88;;;52.92;;
74715;SDS011;63234;37.558;127.058;2022-09-29T00:08:14;108.00;;;64.80;;
74715;SDS011;63234;37.558;127.058;2022-09-29T00:10:42;99.18;;;54.15;;
74715;SDS011;63234;37.558;127.058;2022-09-29T00:13:09;101.38;;;54.05;;
74715;SDS011;63234;37.558;127.058;2022-09-29T00:15:36;110.72;;;54.30;;
74715;SDS011;63234;37.558;127.058;2022-09-29T00:18:03;108.00;;;61.40;;
74715;SDS011;63234;37.558;127.058;2022-09-29T00:20:31;105.32;;;55.53;;
74715;SDS011;63234;37.558;127.058;2022-09-29T00:22:58;102.38;;;53.88;;
74715;SDS011;63234;37.558;127.058;2022-09-29T00:25:25;105.35;;;55.30;;
74715;SDS011;63234;37.558;127.058;2022-09-29T00:27:52;100.50;;;55.67;;
74715;SDS011;63234;37.558;127.058;2022-09-29T00:30:19;99.38;;;55.13;;
74715;SDS011;63234;37.558;127.058;2022-09-29T00:32:46;98.78;;;56.20;;
74715;SDS011;63234;37.558;127.058;2022-09-29T00:35:13;100.45;;;55.65;;
74715;SDS011;63234;37.558;127.058;2022-09-29T00:37:42;93.55;;;52.95;;
74715;SDS011;63234;37.558;127.058;2022-09-29T00:40:09;91.30;;;52.00;;
74715;SDS011;63234;37.558;127.058;2022-09-29T00:42:37;88.65;;;53.75;;
74715;SDS011;63234;37.558;127.058;2022-09-29T00:45:11;98.78;;;59.63;;
74715;SDS011;63234;37.558;127.058;2022-09-29T00:47:46;101.85;;;58.90;;
74715;SDS011;63234;37.558;127.058;2022-09-29T00:51:11;88.38;;;53.50;;
74715;SDS011;63234;37.558;127.058;2022-09-29T00:53:19;91.10;;;56.25;;
74715;SDS011;63234;37.558;127.058;2022-09-29T00:58:30;118.80;;;74.33;;
74715;SDS011;63234;37.558;127.058;2022-09-29T01:01:25;123.32;;;72.47;;
74715;SDS011;63234;37.558;127.058;2022-09-29T01:03:57;119.88;;;63.85;;
74715;SDS011;63234;37.558;127.058;2022-09-29T01:06:57;101.50;;;55.67;;
74715;SDS011;63234;37.558;127.058;2022-09-29T01:09:31;104.45;;;58.65;;
74715;SDS011;63234;37.558;127.058;2022-09-29T01:12:02;101.25;;;56.97;;
74715;SDS011;63234;37.558;127.058;2022-09-29T01:14:30;107.70;;;65.82;;
74715;SDS011;63234;37.558;127.058;2022-09-29T01:16:58;108.80;;;61.28;;
74715;SDS011;63234;37.558;127.058;2022-09-29T01:19:36;118.18;;;59.63;;
74715;SDS011;63234;37.558;127.058;2022-09-29T01:22:21;100.78;;;58.10;;
74715;SDS011;63234;37.558;127.058;2022-09-29T01:25:09;112.80;;;63.97;;
74715;SDS011;63234;37.558;127.058;2022-09-29T01:30:59;112.43;;;69.35;;
74715;SDS011;63234;37.558;127.058;2022-09-29T01:34:02;132.95;;;70.97;;
74715;SDS011;63234;37.558;127.058;2022-09-29T01:36:44;121.07;;;61.20;;
74715;SDS011;63234;37.558;127.058;2022-09-29T01:39:40;127.07;;;71.57;;
74715;SDS011;63234;37.558;127.058;2022-09-29T01:42:18;139.38;;;77.63;;
74715;SDS011;63234;37.558;127.058;2022-09-29T01:45:03;123.35;;;70.72;;
74715;SDS011;63234;37.558;127.058;2022-09-29T01:47:43;109.45;;;58.38;;
74715;SDS011;63234;37.558;127.058;2022-09-29T01:50:22;129.95;;;73.57;;
74715;SDS011;63234;37.558;127.058;2022-09-29T01:52:56;118.28;;;64.22;;
74715;SDS011;63234;37.558;127.058;2022-09-29T01:55:40;119.03;;;60.65;;
74715;SDS011;63234;37.558;127.058;2022-09-29T01:58:16;109.90;;;57.65;;
74715;SDS011;63234;37.558;127.058;2022-09-29T02:03:22;108.50;;;56.42;;
74715;SDS011;63234;37.558;127.058;2022-09-29T02:05:54;126.05;;;74.68;;
74715;SDS011;63234;37.558;127.058;2022-09-29T02:11:12;120.47;;;69.43;;
74715;SDS011;63234;37.558;127.058;2022-09-29T02:14:01;113.88;;;62.30;;
74715;SDS011;63234;37.558;127.058;2022-09-29T02:16:47;115.45;;;64.90;;
74715;SDS011;63234;37.558;127.058;2022-09-29T02:21:52;103.13;;;59.10;;
74715;SDS011;63234;37.558;127.058;2022-09-29T02:24:20;104.18;;;62.00;;
74715;SDS011;63234;37.558;127.058;2022-09-29T02:26:48;98.95;;;60.97;;
74715;SDS011;63234;37.558;127.058;2022-09-29T02:29:16;101.40;;;63.03;;
74715;SDS011;63234;37.558;127.058;2022-09-29T02:31:44;104.35;;;62.95;;
74715;SDS011;63234;37.558;127.058;2022-09-29T02:34:14;102.68;;;60.42;;
74715;SDS011;63234;37.558;127.058;2022-09-29T02:39:33;113.50;;;66.05;;
74715;SDS011;63234;37.558;127.058;2022-09-29T03:02:31;88.32;;;56.15;;
74715;SDS011;63234;37.558;127.058;2022-09-29T03:04:58;92.82;;;56.42;;
74715;SDS011;63234;37.558;127.058;2022-09-29T03:07:25;90.47;;;56.33;;
74715;SDS011;63234;37.558;127.058;2022-09-29T03:09:52;104.43;;;68.72;;
74715;SDS011;63234;37.558;127.058;2022-09-29T03:12:19;92.22;;;56.55;;
74715;SDS011;63234;37.558;127.058;2022-09-29T03:14:46;82.93;;;54.30;;
74715;SDS011;63234;37.558;127.058;2022-09-29T03:17:13;73.18;;;49.50;;
74715;SDS011;63234;37.558;127.058;2022-09-29T03:19:40;70.20;;;47.70;;
74715;SDS011;63234;37.558;127.058;2022-09-29T03:22:07;70.00;;;47.60;;
74715;SDS011;63234;37.558;127.058;2022-09-29T03:24:34;72.53;;;49.28;;
74715;SDS011;63234;37.558;127.058;2022-09-29T03:27:01;71.72;;;50.25;;
74715;SDS011;63234;37.558;127.058;2022-09-29T03:29:29;71.50;;;51.53;;
74715;SDS011;63234;37.558;127.058;2022-09-29T03:31:57;80.22;;;54.00;;
74715;SDS011;63234;37.558;127.058;2022-09-29T03:34:24;84.40;;;53.25;;
74715;SDS011;63234;37.558;127.058;2022-09-29T03:36:51;77.47;;;52.05;;
74715;SDS011;63234;37.558;127.058;2022-09-29T03:39:19;87.78;;;55.30;;
74715;SDS011;63234;37.558;127.058;2022-09-29T03:41:46;87.40;;;59.50;;
74715;SDS011;63234;37.558;127.058;2022-09-29T03:44:13;90.55;;;60.95;;
74715;SDS011;63234;37.558;127.058;2022-09-29T03:46:40;91.85;;;55.25;;
74715;SDS011;63234;37.558;127.058;2022-09-29T03:49:10;73.75;;;47.85;;
74715;SDS011;63234;37.558;127.058;2022-09-29T03:51:37;73.25;;;46.13;;
74715;SDS011;63234;37.558;127.058;2022-09-29T03:54:04;64.25;;;43.90;;
74715;SDS011;63234;37.558;127.058;2022-09-29T03:56:32;58.33;;;40.20;;
74715;SDS011;63234;37.558;127.058;2022-09-29T03:58:59;58.55;;;39.42;;
74715;SDS011;63234;37.558;127.058;2022-09-29T04:01:28;62.78;;;44.13;;
74715;SDS011;63234;37.558;127.058;2022-09-29T04:03:56;59.42;;;41.58;;
74715;SDS011;63234;37.558;127.058;2022-09-29T04:06:23;72.53;;;47.67;;
74715;SDS011;63234;37.558;127.058;2022-09-29T04:08:50;67.22;;;46.45;;
74715;SDS011;63234;37.558;127.058;2022-09-29T04:11:17;76.97;;;48.80;;
74715;SDS011;63234;37.558;127.058;2022-09-29T04:13:44;58.22;;;40.10;;
74715;SDS011;63234;37.558;127.058;2022-09-29T04:16:10;57.72;;;40.78;;
74715;SDS011;63234;37.558;127.058;2022-09-29T04:18:37;66.80;;;45.90;;
74715;SDS011;63234;37.558;127.058;2022-09-29T04:21:07;63.10;;;43.83;;
74715;SDS011;63234;37.558;127.058;2022-09-29T04:23:34;56.83;;;38.35;;
74715;SDS011;63234;37.558;127.058;2022-09-29T04:26:01;43.17;;;31.05;;
74715;SDS011;63234;37.558;127.058;2022-09-29T04:28:32;46.85;;;31.55;;
74715;SDS011;63234;37.558;127.058;2022-09-29T04:31:01;49.80;;;34.30;;
74715;SDS011;63234;37.558;127.058;2022-09-29T04:33:28;52.00;;;34.22;;
74715;SDS011;63234;37.558;127.058;2022-09-29T04:35:56;53.00;;;35.88;;
74715;SDS011;63234;37.558;127.058;2022-09-29T04:38:23;54.38;;;37.15;;
74715;SDS011;63234;37.558;127.058;2022-09-29T04:40:51;52.28;;;34.55;;
74715;SDS011;63234;37.558;127.058;2022-09-29T04:43:17;57.10;;;35.53;;
74715;SDS011;63234;37.558;127.058;2022-09-29T04:45:44;62.15;;;39.15;;
74715;SDS011;63234;37.558;127.058;2022-09-29T04:48:11;60.65;;;40.20;;
74715;SDS011;63234;37.558;127.058;2022-09-29T04:50:38;67.50;;;42.10;;
74715;SDS011;63234;37.558;127.058;2022-09-29T04:53:06;61.25;;;37.00;;
74715;SDS011;63234;37.558;127.058;2022-09-29T04:55:33;60.80;;;35.65;;
74715;SDS011;63234;37.558;127.058;2022-09-29T04:58:01;63.10;;;39.30;;
74715;SDS011;63234;37.558;127.058;2022-09-29T05:00:32;60.90;;;38.08;;
74715;SDS011;63234;37.558;127.058;2022-09-29T05:02:59;60.58;;;39.05;;
74715;SDS011;63234;37.558;127.058;2022-09-29T05:05:26;64.07;;;40.05;;
74715;SDS011;63234;37.558;127.058;2022-09-29T05:07:53;63.35;;;37.50;;
74715;SDS011;63234;37.558;127.058;2022-09-29T05:10:20;56.60;;;35.17;;
74715;SDS011;63234;37.558;127.058;2022-09-29T05:12:48;51.63;;;29.48;;
74715;SDS011;63234;37.558;127.058;2022-09-29T05:15:16;52.55;;;31.13;;
74715;SDS011;63234;37.558;127.058;2022-09-29T05:17:44;51.90;;;30.55;;
74715;SDS011;63234;37.558;127.058;2022-09-29T05:20:11;57.38;;;35.60;;
74715;SDS011;63234;37.558;127.058;2022-09-29T05:22:38;53.15;;;34.80;;
74715;SDS011;63234;37.558;127.058;2022-09-29T05:25:05;57.50;;;34.28;;
74715;SDS011;63234;37.558;127.058;2022-09-29T05:27:34;53.78;;;32.83;;
74715;SDS011;63234;37.558;127.058;2022-09-29T05:30:02;56.50;;;32.30;;
74715;SDS011;63234;37.558;127.058;2022-09-29T05:32:30;60.47;;;33.42;;
74715;SDS011;63234;37.558;127.058;2022-09-29T05:34:56;55.85;;;33.55;;
74715;SDS011;63234;37.558;127.058;2022-09-29T05:37:24;54.78;;;33.75;;
74715;SDS011;63234;37.558;127.058;2022-09-29T05:39:50;56.88;;;34.20;;
74715;SDS011;63234;37.558;127.058;2022-09-29T05:42:17;59.88;;;32.85;;
74715;SDS011;63234;37.558;127.058;2022-09-29T05:44:45;63.03;;;36.97;;
74715;SDS011;63234;37.558;127.058;2022-09-29T05:47:11;62.20;;;37.42;;
74715;SDS011;63234;37.558;127.058;2022-09-29T05:49:38;66.13;;;38.55;;
74715;SDS011;63234;37.558;127.058;2022-09-29T05:52:06;73.50;;;43.70;;
74715;SDS011;63234;37.558;127.058;2022-09-29T05:54:33;62.90;;;38.50;;
74715;SDS011;63234;37.558;127.058;2022-09-29T05:57:00;66.88;;;40.95;;
74715;SDS011;63234;37.558;127.058;2022-09-29T05:59:27;62.17;;;36.22;;
74715;SDS011;63234;37.558;127.058;2022-09-29T06:01:54;66.22;;;39.28;;
74715;SDS011;63234;37.558;127.058;2022-09-29T06:04:21;67.75;;;39.72;;
74715;SDS011;63234;37.558;127.058;2022-09-29T06:06:47;66.18;;;38.60;;
74715;SDS011;63234;37.558;127.058;2022-09-29T06:09:14;63.08;;;37.47;;
74715;SDS011;63234;37.558;127.058;2022-09-29T06:11:41;61.35;;;36.50;;
74715;SDS011;63234;37.558;127.058;2022-09-29T06:14:08;61.00;;;35.10;;
74715;SDS011;63234;37.558;127.058;2022-09-29T06:16:35;77.50;;;37.88;;
74715;SDS011;63234;37.558;127.058;2022-09-29T06:19:02;59.67;;;35.47;;
74715;SDS011;63234;37.558;127.058;2022-09-29T06:21:30;57.03;;;34.33;;
74715;SDS011;63234;37.558;127.058;2022-09-29T06:23:59;61.80;;;37.13;;
74715;SDS011;63234;37.558;127.058;2022-09-29T06:26:27;58.25;;;35.40;;
74715;SDS011;63234;37.558;127.058;2022-09-29T06:28:54;59.45;;;36.85;;
74715;SDS011;63234;37.558;127.058;2022-09-29T06:31:24;64.32;;;39.30;;
74715;SDS011;63234;37.558;127.058;2022-09-29T06:33:52;61.80;;;36.38;;
74715;SDS011;63234;37.558;127.058;2022-09-29T06:36:26;62.58;;;37.42;;
74715;SDS011;63234;37.558;127.058;2022-09-29T06:39:15;69.55;;;37.05;;
74715;SDS011;63234;37.558;127.058;2022-09-29T06:41:42;60.55;;;36.60;;
74715;SDS011;63234;37.558;127.058;2022-09-29T06:44:23;67.70;;;38.03;;
74715;SDS011;63234;37.558;127.058;2022-09-29T06:46:51;60.67;;;35.83;;
74715;SDS011;63234;37.558;127.058;2022-09-29T06:49:19;57.30;;;37.72;;
74715;SDS011;63234;37.558;127.058;2022-09-29T06:51:46;56.35;;;33.97;;
74715;SDS011;63234;37.558;127.058;2022-09-29T06:54:15;56.90;;;36.08;;
74715;SDS011;63234;37.558;127.058;2022-09-29T06:56:51;61.75;;;37.15;;
74715;SDS011;63234;37.558;127.058;2022-09-29T06:59:19;58.42;;;35.63;;
74715;SDS011;63234;37.558;127.058;2022-09-29T07:01:46;56.30;;;34.70;;
74715;SDS011;63234;37.558;127.058;2022-09-29T07:04:14;55.83;;;33.38;;
74715;SDS011;63234;37.558;127.058;2022-09-29T07:06:41;53.65;;;32.40;;
74715;SDS011;63234;37.558;127.058;2022-09-29T07:09:10;57.08;;;33.53;;
74715;SDS011;63234;37.558;127.058;2022-09-29T07:11:43;59.92;;;35.38;;
74715;SDS011;63234;37.558;127.058;2022-09-29T07:14:12;59.45;;;35.25;;
74715;SDS011;63234;37.558;127.058;2022-09-29T07:16:39;57.42;;;34.90;;
74715;SDS011;63234;37.558;127.058;2022-09-29T07:19:06;57.70;;;33.65;;
74715;SDS011;63234;37.558;127.058;2022-09-29T07:21:34;58.58;;;33.22;;
74715;SDS011;63234;37.558;127.058;2022-09-29T07:24:10;53.20;;;33.85;;
74715;SDS011;63234;37.558;127.058;2022-09-29T07:27:17;54.97;;;32.03;;
74715;SDS011;63234;37.558;127.058;2022-09-29T07:29:51;60.15;;;33.33;;
74715;SDS011;63234;37.558;127.058;2022-09-29T07:32:19;57.00;;;31.40;;
74715;SDS011;63234;37.558;127.058;2022-09-29T07:34:45;57.05;;;32.58;;
74715;SDS011;63234;37.558;127.058;2022-09-29T07:37:12;56.20;;;33.70;;
74715;SDS011;63234;37.558;127.058;2022-09-29T07:39:40;56.85;;;32.50;;
74715;SDS011;63234;37.558;127.058;2022-09-29T07:42:06;54.38;;;32.70;;
74715;SDS011;63234;37.558;127.058;2022-09-29T07:44:33;58.85;;;33.90;;
74715;SDS011;63234;37.558;127.058;2022-09-29T07:47:00;57.00;;;34.05;;
74715;SDS011;63234;37.558;127.058;2022-09-29T07:49:27;53.75;;;34.05;;
74715;SDS011;63234;37.558;127.058;2022-09-29T07:51:54;52.53;;;31.60;;
74715;SDS011;63234;37.558;127.058;2022-09-29T07:54:21;53.15;;;31.08;;
74715;SDS011;63234;37.558;127.058;2022-09-29T07:56:48;55.30;;;32.55;;
74715;SDS011;63234;37.558;127.058;2022-09-29T07:59:15;56.30;;;34.95;;
74715;SDS011;63234;37.558;127.058;2022-09-29T08:01:42;66.55;;;39.20;;
74715;SDS011;63234;37.558;127.058;2022-09-29T08:04:08;66.50;;;39.00;;
74715;SDS011;63234;37.558;127.058;2022-09-29T08:06:36;65.20;;;39.47;;
74715;SDS011;63234;37.558;127.058;2022-09-29T08:09:04;74.80;;;40.78;;
74715;SDS011;63234;37.558;127.058;2022-09-29T08:11:32;77.03;;;42.83;;
74715;SDS011;63234;37.558;127.058;2022-09-29T08:14:02;76.70;;;44.95;;
74715;SDS011;63234;37.558;127.058;2022-09-29T08:16:29;84.28;;;48.97;;
74715;SDS011;63234;37.558;127.058;2022-09-29T08:18:57;79.20;;;47.80;;
74715;SDS011;63234;37.558;127.058;2022-09-29T08:21:25;84.18;;;49.63;;
74715;SDS011;63234;37.558;127.058;2022-09-29T08:23:52;91.25;;;50.97;;
74715;SDS011;63234;37.558;127.058;2022-09-29T08:26:19;87.43;;;51.92;;
74715;SDS011;63234;37.558;127.058;2022-09-29T08:28:47;89.20;;;50.80;;
74715;SDS011;63234;37.558;127.058;2022-09-29T08:31:15;95.53;;;52.25;;
74715;SDS011;63234;37.558;127.058;2022-09-29T08:33:47;97.07;;;52.22;;
74715;SDS011;63234;37.558;127.058;2022-09-29T08:36:19;93.20;;;52.35;;
74715;SDS011;63234;37.558;127.058;2022-09-29T08:38:47;94.43;;;55.30;;
74715;SDS011;63234;37.558;127.058;2022-09-29T08:41:22;90.15;;;51.30;;
74715;SDS011;63234;37.558;127.058;2022-09-29T08:44:19;100.88;;;55.38;;
74715;SDS011;63234;37.558;127.058;2022-09-29T08:49:57;93.93;;;53.28;;
74715;SDS011;63234;37.558;127.058;2022-09-29T08:52:39;89.38;;;53.13;;
74715;SDS011;63234;37.558;127.058;2022-09-29T08:57:45;78.53;;;45.35;;
74715;SDS011;63234;37.558;127.058;2022-09-29T09:00:14;79.85;;;47.03;;
74715;SDS011;63234;37.558;127.058;2022-09-29T09:02:47;72.85;;;43.63;;
74715;SDS011;63234;37.558;127.058;2022-09-29T09:08:57;81.03;;;45.05;;
74715;SDS011;63234;37.558;127.058;2022-09-29T09:14:30;57.55;;;39.35;;
74715;SDS011;63234;37.558;127.058;2022-09-29T09:17:26;92.25;;;42.70;;
74715;SDS011;63234;37.558;127.058;2022-09-29T09:25:32;53.45;;;36.53;;
74715;SDS011;63234;37.558;127.058;2022-09-29T09:30:53;51.28;;;34.08;;
74715;SDS011;63234;37.558;127.058;2022-09-29T09:36:01;51.63;;;34.47;;
74715;SDS011;63234;37.558;127.058;2022-09-29T09:38:40;49.20;;;32.55;;
74715;SDS011;63234;37.558;127.058;2022-09-29T09:41:16;57.03;;;36.15;;
74715;SDS011;63234;37.558;127.058;2022-09-29T09:43:48;52.83;;;33.30;;
74715;SDS011;63234;37.558;127.058;2022-09-29T09:54:31;49.05;;;28.58;;
74715;SDS011;63234;37.558;127.058;2022-09-29T10:02:44;43.42;;;26.83;;
74715;SDS011;63234;37.558;127.058;2022-09-29T10:05:16;44.60;;;26.95;;
74715;SDS011;63234;37.558;127.058;2022-09-29T10:07:46;44.00;;;29.65;;
74715;SDS011;63234;37.558;127.058;2022-09-29T10:10:23;44.40;;;28.00;;
74715;SDS011;63234;37.558;127.058;2022-09-29T10:13:12;44.97;;;29.63;;
74715;SDS011;63234;37.558;127.058;2022-09-29T10:16:06;47.60;;;28.90;;
74715;SDS011;63234;37.558;127.058;2022-09-29T10:18:36;43.70;;;28.15;;
74715;SDS011;63234;37.558;127.058;2022-09-29T10:23:58;45.63;;;29.48;;
74715;SDS011;63234;37.558;127.058;2022-09-29T10:29:24;45.53;;;29.95;;
74715;SDS011;63234;37.558;127.058;2022-09-29T10:32:22;47.40;;;29.25;;
74715;SDS011;63234;37.558;127.058;2022-09-29T10:35:03;43.88;;;27.65;;
74715;SDS011;63234;37.558;127.058;2022-09-29T10:37:37;63.77;;;30.67;;
74715;SDS011;63234;37.558;127.058;2022-09-29T10:42:35;47.72;;;30.08;;
74715;SDS011;63234;37.558;127.058;2022-09-29T10:47:44;50.63;;;30.35;;
74715;SDS011;63234;37.558;127.058;2022-09-29T10:50:35;50.17;;;30.10;;
74715;SDS011;63234;37.558;127.058;2022-09-29T10:53:17;47.08;;;30.45;;
74715;SDS011;63234;37.558;127.058;2022-09-29T10:55:59;44.53;;;30.38;;
74715;SDS011;63234;37.558;127.058;2022-09-29T11:04:14;44.45;;;30.25;;
74715;SDS011;63234;37.558;127.058;2022-09-29T11:06:40;48.13;;;30.52;;
74715;SDS011;63234;37.558;127.058;2022-09-29T11:14:59;50.40;;;29.50;;
74715;SDS011;63234;37.558;127.058;2022-09-29T11:18:00;49.63;;;31.50;;
74715;SDS011;63234;37.558;127.058;2022-09-29T11:20:48;50.15;;;30.50;;
74715;SDS011;63234;37.558;127.058;2022-09-29T11:38:40;51.55;;;31.60;;
74715;SDS011;63234;37.558;127.058;2022-09-29T11:52:36;50.22;;;31.45;;
74715;SDS011;63234;37.558;127.058;2022-09-29T12:01:00;55.97;;;32.80;;
74715;SDS011;63234;37.558;127.058;2022-09-29T12:09:33;57.00;;;33.28;;
74715;SDS011;63234;37.558;127.058;2022-09-29T12:14:57;46.45;;;30.92;;
74715;SDS011;63234;37.558;127.058;2022-09-29T12:17:58;54.80;;;33.45;;
74715;SDS011;63234;37.558;127.058;2022-09-29T12:20:32;55.58;;;33.05;;
74715;SDS011;63234;37.558;127.058;2022-09-29T12:23:03;55.60;;;33.72;;
74715;SDS011;63234;37.558;127.058;2022-09-29T12:25:36;54.85;;;33.78;;
74715;SDS011;63234;37.558;127.058;2022-09-29T12:28:13;58.58;;;35.17;;
74715;SDS011;63234;37.558;127.058;2022-09-29T12:30:47;55.17;;;34.08;;
74715;SDS011;63234;37.558;127.058;2022-09-29T12:36:48;59.10;;;35.30;;
74715;SDS011;63234;37.558;127.058;2022-09-29T12:42:20;62.35;;;36.20;;
74715;SDS011;63234;37.558;127.058;2022-09-29T12:47:47;57.22;;;35.78;;
74715;SDS011;63234;37.558;127.058;2022-09-29T12:50:45;60.53;;;36.42;;
74715;SDS011;63234;37.558;127.058;2022-09-29T12:56:21;57.90;;;35.60;;
74715;SDS011;63234;37.558;127.058;2022-09-29T12:59:42;57.70;;;35.42;;
74715;SDS011;63234;37.558;127.058;2022-09-29T13:01:55;63.35;;;36.00;;
74715;SDS011;63234;37.558;127.058;2022-09-29T13:04:33;66.50;;;37.78;;
74715;SDS011;63234;37.558;127.058;2022-09-29T13:12:46;66.35;;;38.58;;
74715;SDS011;63234;37.558;127.058;2022-09-29T13:18:31;60.55;;;36.85;;
74715;SDS011;63234;37.558;127.058;2022-09-29T13:21:25;63.20;;;37.85;;
74715;SDS011;63234;37.558;127.058;2022-09-29T13:29:42;69.20;;;39.75;;
74715;SDS011;63234;37.558;127.058;2022-09-29T13:32:14;61.42;;;39.05;;
74715;SDS011;63234;37.558;127.058;2022-09-29T13:35:00;67.10;;;38.28;;
74715;SDS011;63234;37.558;127.058;2022-09-29T13:37:34;72.90;;;40.45;;
74715;SDS011;63234;37.558;127.058;2022-09-29T13:40:44;70.22;;;41.58;;
74715;SDS011;63234;37.558;127.058;2022-09-29T13:43:03;74.80;;;43.33;;
74715;SDS011;63234;37.558;127.058;2022-09-29T13:47:59;80.93;;;45.10;;
74715;SDS011;63234;37.558;127.058;2022-09-29T13:50:47;80.78;;;42.00;;
74715;SDS011;63234;37.558;127.058;2022-09-29T14:01:06;67.82;;;39.45;;
74715;SDS011;63234;37.558;127.058;2022-09-29T14:03:38;68.68;;;40.17;;
74715;SDS011;63234;37.558;127.058;2022-09-29T14:06:17;70.78;;;39.42;;
74715;SDS011;63234;37.558;127.058;2022-09-29T14:11:13;70.75;;;39.53;;
74715;SDS011;63234;37.558;127.058;2022-09-29T14:13:57;65.50;;;38.00;;
74715;SDS011;63234;37.558;127.058;2022-09-29T14:16:34;70.25;;;39.83;;
74715;SDS011;63234;37.558;127.058;2022-09-29T14:22:01;70.82;;;40.35;;
74715;SDS011;63234;37.558;127.058;2022-09-29T14:32:32;69.75;;;42.20;;
74715;SDS011;63234;37.558;127.058;2022-09-29T14:35:13;74.00;;;44.53;;
74715;SDS011;63234;37.558;127.058;2022-09-29T14:38:02;61.78;;;40.00;;
74715;SDS011;63234;37.558;127.058;2022-09-29T14:40:35;66.90;;;40.20;;
74715;SDS011;63234;37.558;127.058;2022-09-29T14:55:18;47.72;;;28.52;;
74715;SDS011;63234;37.558;127.058;2022-09-29T15:00:36;46.40;;;27.35;;
74715;SDS011;63234;37.558;127.058;2022-09-29T15:03:26;46.90;;;28.58;;
74715;SDS011;63234;37.558;127.058;2022-09-29T15:06:05;46.25;;;27.08;;
74715;SDS011;63234;37.558;127.058;2022-09-29T15:09:33;44.97;;;26.63;;
74715;SDS011;63234;37.558;127.058;2022-09-29T15:11:50;45.40;;;27.08;;
74715;SDS011;63234;37.558;127.058;2022-09-29T15:14:26;45.90;;;29.25;;
74715;SDS011;63234;37.558;127.058;2022-09-29T15:19:27;40.42;;;28.25;;
74715;SDS011;63234;37.558;127.058;2022-09-29T15:25:00;44.50;;;27.63;;
74715;SDS011;63234;37.558;127.058;2022-09-29T15:27:30;39.83;;;23.90;;
74715;SDS011;63234;37.558;127.058;2022-09-29T15:29:58;39.22;;;24.95;;
74715;SDS011;63234;37.558;127.058;2022-09-29T15:32:26;41.47;;;25.80;;
74715;SDS011;63234;37.558;127.058;2022-09-29T15:35:39;41.22;;;26.85;;
74715;SDS011;63234;37.558;127.058;2022-09-29T15:38:50;43.33;;;26.30;;
74715;SDS011;63234;37.558;127.058;2022-09-29T15:40:53;49.42;;;30.95;;
74715;SDS011;63234;37.558;127.058;2022-09-29T15:43:27;50.85;;;27.92;;
74715;SDS011;63234;37.558;127.058;2022-09-29T15:46:13;40.28;;;25.58;;
74715;SDS011;63234;37.558;127.058;2022-09-29T15:48:49;42.78;;;28.00;;
74715;SDS011;63234;37.558;127.058;2022-09-29T15:51:37;39.92;;;23.30;;
74715;SDS011;63234;37.558;127.058;2022-09-29T15:54:05;42.45;;;24.60;;
74715;SDS011;63234;37.558;127.058;2022-09-29T15:56:35;45.97;;;26.30;;
74715;SDS011;63234;37.558;127.058;2022-09-29T16:02:28;41.60;;;28.20;;
74715;SDS011;63234;37.558;127.058;2022-09-29T16:05:03;48.10;;;27.65;;
74715;SDS011;63234;37.558;127.058;2022-09-29T16:07:37;44.37;;;27.63;;
74715;SDS011;63234;37.558;127.058;2022-09-29T16:10:14;47.38;;;29.38;;
74715;SDS011;63234;37.558;127.058;2022-09-29T16:15:29;51.47;;;28.52;;
74715;SDS011;63234;37.558;127.058;2022-09-29T16:18:18;48.17;;;29.70;;
74715;SDS011;63234;37.558;127.058;2022-09-29T16:20:50;46.67;;;27.85;;
74715;SDS011;63234;37.558;127.058;2022-09-29T16:23:20;58.22;;;32.42;;
74715;SDS011;63234;37.558;127.058;2022-09-29T16:26:12;41.88;;;27.10;;
74715;SDS011;63234;37.558;127.058;2022-09-29T16:29:03;45.92;;;27.52;;
74715;SDS011;63234;37.558;127.058;2022-09-29T16:31:43;42.60;;;27.10;;
74715;SDS011;63234;37.558;127.058;2022-09-29T16:39:23;48.47;;;30.17;;
74715;SDS011;63234;37.558;127.058;2022-09-29T16:42:01;40.28;;;26.85;;
74715;SDS011;63234;37.558;127.058;2022-09-29T16:44:33;44.63;;;26.75;;
74715;SDS011;63234;37.558;127.058;2022-09-29T16:47:18;41.05;;;26.63;;
74715;SDS011;63234;37.558;127.058;2022-09-29T16:55:19;42.45;;;27.02;;
74715;SDS011;63234;37.558;127.058;2022-09-29T16:57:56;44.47;;;26.60;;
74715;SDS011;63234;37.558;127.058;2022-09-29T17:00:26;42.23;;;26.37;;
74715;SDS011;63234;37.558;127.058;2022-09-29T17:02:54;48.88;;;30.08;;
74715;SDS011;63234;37.558;127.058;2022-09-29T17:05:27;43.33;;;26.70;;
74715;SDS011;63234;37.558;127.058;2022-09-29T17:07:59;47.97;;;29.27;;
74715;SDS011;63234;37.558;127.058;2022-09-29T17:10:27;44.97;;;27.20;;
74715;SDS011;63234;37.558;127.058;2022-09-29T17:12:54;44.72;;;26.65;;
74715;SDS011;63234;37.558;127.058;2022-09-29T17:15:22;42.28;;;24.92;;
74715;SDS011;63234;37.558;127.058;2022-09-29T17:17:50;41.00;;;24.08;;
74715;SDS011;63234;37.558;127.058;2022-09-29T17:20:20;44.85;;;24.83;;
74715;SDS011;63234;37.558;127.058;2022-09-29T17:25:20;41.45;;;24.77;;
74715;SDS011;63234;37.558;127.058;2022-09-29T17:27:48;37.45;;;23.23;;
74715;SDS011;63234;37.558;127.058;2022-09-29T17:30:32;41.53;;;26.23;;
74715;SDS011;63234;37.558;127.058;2022-09-29T17:32:59;44.55;;;27.38;;
74715;SDS011;63234;37.558;127.058;2022-09-29T17:35:37;40.15;;;24.38;;
74715;SDS011;63234;37.558;127.058;2022-09-29T17:38:06;45.78;;;26.60;;
74715;SDS011;63234;37.558;127.058;2022-09-29T17:40:41;44.45;;;25.95;;
74715;SDS011;63234;37.558;127.058;2022-09-29T17:43:22;41.45;;;26.88;;
74715;SDS011;63234;37.558;127.058;2022-09-29T17:45:50;41.75;;;27.30;;
74715;SDS011;63234;37.558;127.058;2022-09-29T17:48:19;49.92;;;28.95;;
74715;SDS011;63234;37.558;127.058;2022-09-29T17:50:47;49.38;;;30.42;;
74715;SDS011;63234;37.558;127.058;2022-09-29T17:53:16;51.47;;;31.27;;
74715;SDS011;63234;37.558;127.058;2022-09-29T17:55:44;53.72;;;32.85;;
74715;SDS011;63234;37.558;127.058;2022-09-29T17:58:16;52.42;;;33.30;;
74715;SDS011;63234;37.558;127.058;2022-09-29T18:00:45;59.38;;;35.65;;
74715;SDS011;63234;37.558;127.058;2022-09-29T18:03:14;56.55;;;34.28;;
74715;SDS011;63234;37.558;127.058;2022-09-29T18:05:43;55.80;;;34.85;;
74715;SDS011;63234;37.558;127.058;2022-09-29T18:08:13;60.33;;;35.67;;
74715;SDS011;63234;37.558;127.058;2022-09-29T18:10:45;58.88;;;35.25;;
74715;SDS011;63234;37.558;127.058;2022-09-29T18:13:20;58.75;;;37.00;;
74715;SDS011;63234;37.558;127.058;2022-09-29T18:15:49;61.83;;;36.70;;